Time;durP1;ratioP1;P1;durP2;ratioP2;P2;SDS_P1;SDS_P2;PMS_P1;PMS_P2;Temp;Humidity;BMP_temperature;BMP_pressure;BME280_temperature;BME280_humidity;BME280_pressure;Samples;Min_cycle;Max_cycle;Signal;HPM_P1;HPM_P2
2021/04/06 00:00:09;;;;;;;14.95;5.68;;;1.60;99.90;;;;;;5128695;27;20203;-66
2021/04/06 00:02:41;;;;;;;16.27;6.32;;;1.60;99.90;;;;;;5125919;27;20209;-65
2021/04/06 00:05:10;;;;;;;17.52;6.80;;;1.60;99.90;;;;;;5132255;27;20291;-64
2021/04/06 00:07:37;;;;;;;16.27;5.63;;;1.70;99.90;;;;;;5131341;27;20346;-64
2021/04/06 00:10:09;;;;;;;10.55;4.78;;;1.70;99.90;;;;;;5133428;27;20284;-65
2021/04/06 00:12:37;;;;;;;16.00;5.25;;;1.70;99.90;;;;;;5133134;27;20208;-65
2021/04/06 00:15:06;;;;;;;9.55;4.60;;;1.70;99.90;;;;;;5132961;27;20197;-65
2021/04/06 00:17:34;;;;;;;19.17;6.72;;;1.70;99.90;;;;;;5132906;27;20297;-64
2021/04/06 00:20:02;;;;;;;10.23;4.95;;;1.70;99.90;;;;;;5133206;27;20198;-64
2021/04/06 00:22:30;;;;;;;13.52;5.50;;;1.70;99.90;;;;;;5132717;27;20191;-67
2021/04/06 00:24:58;;;;;;;12.30;5.45;;;1.70;99.90;;;;;;5130983;27;20198;-64
2021/04/06 00:27:29;;;;;;;11.27;5.15;;;1.70;99.90;;;;;;5130399;27;20199;-65
2021/04/06 00:29:57;;;;;;;8.85;4.05;;;1.70;99.90;;;;;;5131454;27;20203;-65
2021/04/06 00:32:27;;;;;;;9.95;3.47;;;1.70;99.90;;;;;;5129324;27;20649;-64
2021/04/06 00:34:57;;;;;;;19.95;4.07;;;1.70;99.90;;;;;;5132633;27;20195;-64
2021/04/06 00:37:26;;;;;;;9.90;3.50;;;1.70;99.90;;;;;;5132889;27;20223;-65
2021/04/06 00:39:59;;;;;;;10.57;3.60;;;1.80;99.90;;;;;;5132962;28;20626;-65
2021/04/06 00:42:29;;;;;;;10.05;2.88;;;1.70;99.90;;;;;;5133176;27;20668;-64
2021/04/06 00:44:58;;;;;;;10.02;2.95;;;1.80;99.90;;;;;;5132492;27;20203;-63
2021/04/06 00:47:27;;;;;;;12.38;2.88;;;1.70;99.90;;;;;;5132499;27;20263;-64
2021/04/06 00:49:55;;;;;;;12.02;2.13;;;1.80;99.90;;;;;;5132812;27;20650;-65
2021/04/06 00:52:22;;;;;;;9.93;3.03;;;1.80;99.90;;;;;;5132910;28;20199;-64
2021/04/06 00:54:52;;;;;;;9.00;2.80;;;1.80;99.90;;;;;;5132677;28;20620;-64
2021/04/06 00:57:19;;;;;;;9.73;2.33;;;1.90;99.90;;;;;;5132235;27;20193;-67
2021/04/06 01:00:14;;;;;;;8.13;3.13;;;2.00;99.90;;;;;;5132665;28;20666;-64
2021/04/06 01:02:43;;;;;;;9.55;2.40;;;2.00;99.90;;;;;;5128469;27;20637;-64
2021/04/06 01:05:11;;;;;;;8.98;2.97;;;1.90;99.90;;;;;;5132083;28;20198;-65
2021/04/06 01:07:38;;;;;;;8.70;2.20;;;2.00;99.90;;;;;;5132982;27;20213;-67
2021/04/06 01:10:07;;;;;;;7.90;2.17;;;2.00;99.90;;;;;;5136854;27;20201;-64
2021/04/06 01:12:33;;;;;;;11.05;2.60;;;2.00;99.90;;;;;;5136198;27;20219;-65
2021/04/06 01:15:01;;;;;;;14.88;3.22;;;2.00;99.90;;;;;;5136530;27;20202;-63
2021/04/06 01:17:30;;;;;;;9.88;2.08;;;2.10;99.90;;;;;;5135457;27;20346;-63
2021/04/06 01:19:59;;;;;;;9.90;2.58;;;2.00;99.90;;;;;;5135867;27;20215;-66
2021/04/06 01:22:28;;;;;;;6.18;1.80;;;2.10;99.90;;;;;;5136984;27;20308;-63
2021/04/06 01:24:55;;;;;;;7.80;1.63;;;2.10;99.90;;;;;;5129612;27;20201;-65
2021/04/06 01:27:21;;;;;;;7.75;1.70;;;2.10;99.90;;;;;;5135776;27;20238;-64
2021/04/06 01:29:49;;;;;;;7.75;1.48;;;2.00;99.90;;;;;;5136291;27;20194;-63
2021/04/06 01:32:17;;;;;;;10.68;1.50;;;2.10;99.90;;;;;;5132698;27;20220;-64
2021/04/06 01:34:44;;;;;;;12.23;1.75;;;2.10;99.90;;;;;;5135882;27;20214;-63
2021/04/06 01:37:11;;;;;;;8.98;1.75;;;2.10;99.90;;;;;;5135986;27;20679;-64
2021/04/06 01:39:37;;;;;;;8.53;2.33;;;2.10;99.90;;;;;;5136085;27;20207;-64
2021/04/06 01:42:08;;;;;;;13.35;2.55;;;2.10;99.90;;;;;;5136262;27;20451;-64
2021/04/06 01:44:38;;;;;;;9.27;1.85;;;2.10;99.90;;;;;;5135929;27;20717;-66
2021/04/06 01:47:05;;;;;;;8.45;1.60;;;2.10;99.90;;;;;;5135611;27;20204;-65
2021/04/06 01:49:32;;;;;;;8.35;1.60;;;2.10;99.90;;;;;;5135724;27;20279;-64
2021/04/06 01:51:59;;;;;;;9.35;1.88;;;2.10;99.90;;;;;;5136430;27;20247;-65
2021/04/06 01:54:26;;;;;;;9.50;2.63;;;2.10;99.90;;;;;;5135594;27;20232;-64
2021/04/06 01:56:55;;;;;;;15.15;2.08;;;2.20;99.90;;;;;;5130522;27;20209;-66
2021/04/06 01:59:27;;;;;;;8.45;1.90;;;2.20;99.90;;;;;;5135911;27;20209;-63
2021/04/06 02:01:55;;;;;;;10.80;2.90;;;2.20;99.90;;;;;;5135840;27;20201;-65
2021/04/06 02:04:23;;;;;;;8.18;2.05;;;2.30;99.90;;;;;;5136241;27;20198;-65
2021/04/06 02:06:50;;;;;;;10.43;1.58;;;2.30;99.90;;;;;;5135287;27;20667;-64
2021/04/06 02:09:19;;;;;;;13.90;2.78;;;2.40;99.90;;;;;;5135538;27;20209;-63
2021/04/06 02:11:46;;;;;;;9.10;1.53;;;2.30;99.90;;;;;;5136002;27;20209;-63
2021/04/06 02:14:14;;;;;;;7.00;1.70;;;2.30;99.90;;;;;;5135348;27;20511;-66
2021/04/06 02:16:46;;;;;;;14.13;2.47;;;2.40;99.90;;;;;;5135235;27;20545;-65
2021/04/06 02:19:25;;;;;;;14.00;2.30;;;2.30;99.90;;;;;;5134171;27;20656;-64
2021/04/06 02:21:54;;;;;;;8.95;2.20;;;2.30;99.90;;;;;;5135581;27;20289;-65
2021/04/06 02:24:36;;;;;;;16.67;3.58;;;2.30;99.90;;;;;;5135238;27;20206;-66
2021/04/06 02:27:07;;;;;;;14.35;2.30;;;2.30;99.90;;;;;;5133235;27;20215;-63
2021/04/06 02:29:45;;;;;;;7.95;2.10;;;2.20;99.90;;;;;;5134966;27;20205;-66
2021/04/06 02:32:15;;;;;;;10.40;2.50;;;2.20;99.90;;;;;;5135404;27;20569;-65
2021/04/06 02:34:44;;;;;;;10.48;2.42;;;2.30;99.90;;;;;;5134859;27;20537;-64
2021/04/06 02:37:14;;;;;;;10.35;2.30;;;2.30;99.90;;;;;;5132226;27;20205;-64
2021/04/06 02:39:40;;;;;;;10.27;2.88;;;2.30;99.90;;;;;;5135041;27;20282;-65
2021/04/06 02:42:25;;;;;;;11.63;2.85;;;2.30;99.90;;;;;;5135371;27;20198;-64
2021/04/06 02:44:55;;;;;;;13.07;2.72;;;2.30;99.90;;;;;;5134517;27;20201;-63
2021/04/06 02:47:24;;;;;;;10.15;2.55;;;2.30;99.90;;;;;;5134467;27;20189;-63
2021/04/06 02:49:51;;;;;;;12.40;3.30;;;2.30;99.90;;;;;;5135019;27;20786;-63
2021/04/06 02:52:18;;;;;;;12.95;3.10;;;2.30;99.90;;;;;;5135304;27;20202;-65
2021/04/06 02:54:44;;;;;;;10.43;3.47;;;2.20;99.90;;;;;;5134234;27;20221;-66
2021/04/06 02:57:21;;;;;;;10.52;3.50;;;2.30;99.90;;;;;;5134507;27;20206;-63
2021/04/06 02:59:49;;;;;;;9.40;3.40;;;2.30;99.90;;;;;;5134543;27;20193;-65
2021/04/06 03:02:15;;;;;;;13.02;3.58;;;2.20;99.90;;;;;;5135441;27;20601;-65
2021/04/06 03:04:44;;;;;;;12.10;4.18;;;2.30;99.90;;;;;;5134155;27;20694;-63
2021/04/06 03:07:22;;;;;;;13.18;5.00;;;2.30;99.90;;;;;;5134436;27;20213;-65
2021/04/06 03:09:55;;;;;;;10.55;3.50;;;2.20;99.90;;;;;;5134484;27;20606;-65
2021/04/06 03:12:26;;;;;;;19.88;4.85;;;2.30;99.90;;;;;;5134661;27;20205;-65
2021/04/06 03:14:53;;;;;;;12.52;3.85;;;2.30;99.90;;;;;;5134253;27;20233;-64
2021/04/06 03:17:20;;;;;;;14.30;4.33;;;2.40;99.90;;;;;;5134522;27;20213;-66
2021/04/06 03:19:55;;;;;;;10.02;4.13;;;2.40;99.90;;;;;;5133950;27;20434;-63
2021/04/06 03:22:21;;;;;;;16.83;5.33;;;2.40;99.90;;;;;;5134073;27;20196;-64
2021/04/06 03:24:49;;;;;;;14.25;4.28;;;2.50;99.90;;;;;;5134236;27;20563;-64
2021/04/06 03:27:15;;;;;;;19.97;6.17;;;2.50;99.90;;;;;;5133892;27;20554;-63
2021/04/06 03:29:42;;;;;;;13.77;5.43;;;2.40;99.90;;;;;;5134198;27;20818;-64
2021/04/06 03:32:09;;;;;;;15.80;4.45;;;2.40;99.90;;;;;;5135679;27;20199;-63
2021/04/06 03:34:37;;;;;;;8.68;3.15;;;2.40;99.90;;;;;;5137443;27;20228;-63
2021/04/06 03:37:06;;;;;;;17.02;4.28;;;2.30;99.90;;;;;;5119374;27;20190;-64
2021/04/06 03:39:33;;;;;;;14.65;3.33;;;2.30;99.90;;;;;;5154645;27;20219;-63
2021/04/06 03:42:00;;;;;;;12.05;3.80;;;2.30;99.90;;;;;;5155254;27;20692;-63
2021/04/06 03:44:28;;;;;;;11.95;4.38;;;2.30;99.90;;;;;;5154702;27;20300;-64
2021/04/06 03:46:57;;;;;;;12.60;3.10;;;2.20;99.90;;;;;;5154076;27;20257;-66
2021/04/06 03:49:26;;;;;;;13.47;3.47;;;2.20;99.90;;;;;;5154717;27;20236;-65
2021/04/06 03:51:54;;;;;;;14.23;3.00;;;2.20;99.90;;;;;;5151644;27;20441;-63
2021/04/06 03:54:36;;;;;;;16.05;3.40;;;2.10;99.90;;;;;;5133748;27;20236;-66
2021/04/06 03:57:21;;;;;;;14.55;3.63;;;2.10;99.90;;;;;;5133179;27;20201;-65
2021/04/06 03:59:48;;;;;;;18.55;4.35;;;2.10;99.90;;;;;;5133662;27;20629;-63
2021/04/06 04:02:14;;;;;;;12.85;4.18;;;2.10;99.90;;;;;;5133562;27;20288;-64
2021/04/06 04:04:41;;;;;;;18.20;4.20;;;2.10;99.90;;;;;;5133040;27;20202;-64
2021/04/06 04:07:07;;;;;;;15.82;3.17;;;2.10;99.90;;;;;;5112833;28;20207;-63
2021/04/06 04:09:35;;;;;;;25.40;3.92;;;2.10;99.90;;;;;;5122431;27;20202;-64
2021/04/06 04:12:01;;;;;;;15.45;2.58;;;2.00;99.90;;;;;;5132911;27;20257;-63
2021/04/06 04:14:27;;;;;;;13.25;3.17;;;1.90;99.90;;;;;;5133113;27;20229;-63
2021/04/06 04:16:54;;;;;;;14.60;2.42;;;1.90;99.90;;;;;;5133219;27;20308;-64
2021/04/06 04:19:20;;;;;;;8.35;2.45;;;1.90;99.90;;;;;;5133090;27;20655;-64
2021/04/06 04:21:47;;;;;;;12.50;2.55;;;1.90;99.90;;;;;;5132756;27;20196;-67
2021/04/06 04:24:13;;;;;;;13.35;2.88;;;1.90;99.90;;;;;;5133110;27;20198;-64
2021/04/06 04:26:40;;;;;;;13.93;3.90;;;1.90;99.90;;;;;;5132363;27;20231;-64
2021/04/06 04:29:07;;;;;;;20.02;3.95;;;1.90;99.90;;;;;;5133374;27;20200;-66
2021/04/06 04:31:33;;;;;;;13.00;3.75;;;1.80;99.90;;;;;;5133456;27;20336;-63
2021/04/06 04:34:00;;;;;;;9.55;2.90;;;1.80;99.90;;;;;;5132644;27;20222;-64
2021/04/06 04:36:26;;;;;;;10.15;2.83;;;1.80;99.90;;;;;;5132729;27;20197;-64
2021/04/06 04:38:52;;;;;;;11.35;2.92;;;1.70;99.90;;;;;;5133670;27;20208;-65
2021/04/06 04:41:18;;;;;;;8.80;2.60;;;1.80;99.90;;;;;;5133309;27;20206;-63
2021/04/06 04:43:46;;;;;;;7.15;2.15;;;1.70;99.90;;;;;;5131754;27;20227;-64
2021/04/06 04:46:12;;;;;;;9.25;2.65;;;1.70;99.90;;;;;;5132494;28;20216;-64
2021/04/06 04:48:38;;;;;;;12.65;3.60;;;1.60;99.90;;;;;;5131288;27;20851;-65
2021/04/06 04:51:05;;;;;;;9.93;2.65;;;1.60;99.90;;;;;;5132450;27;20202;-64
2021/04/06 04:53:32;;;;;;;16.65;2.90;;;1.70;99.90;;;;;;5131978;28;20251;-64
2021/04/06 04:55:58;;;;;;;8.75;2.90;;;1.80;99.90;;;;;;5131635;28;20199;-64
2021/04/06 04:58:24;;;;;;;10.75;2.28;;;1.70;99.90;;;;;;5131775;28;20196;-66
2021/04/06 05:00:51;;;;;;;9.40;2.63;;;1.60;99.90;;;;;;5133073;27;20283;-64
2021/04/06 05:03:18;;;;;;;11.25;2.33;;;1.60;99.90;;;;;;5132150;27;20229;-64
2021/04/06 05:05:44;;;;;;;11.20;2.45;;;1.60;99.90;;;;;;5132451;27;20309;-65
2021/04/06 05:08:10;;;;;;;15.75;2.30;;;1.60;99.90;;;;;;5132387;27;20287;-64
2021/04/06 05:10:37;;;;;;;14.40;3.40;;;1.60;99.90;;;;;;5131991;28;20284;-65
2021/04/06 05:13:03;;;;;;;13.48;2.70;;;1.60;99.90;;;;;;5132249;27;20680;-65
2021/04/06 05:15:30;;;;;;;10.68;2.47;;;1.50;99.90;;;;;;5131796;27;20633;-65
2021/04/06 05:17:57;;;;;;;12.52;2.35;;;1.40;99.90;;;;;;5132533;27;20265;-64
2021/04/06 05:20:23;;;;;;;9.05;2.40;;;1.40;99.90;;;;;;5128673;27;20197;-64
2021/04/06 05:22:50;;;;;;;9.00;2.25;;;1.40;99.90;;;;;;5132281;27;20287;-65
2021/04/06 05:25:17;;;;;;;7.32;3.17;;;1.40;99.90;;;;;;5131545;27;20219;-65
2021/04/06 05:27:43;;;;;;;9.77;2.75;;;1.50;99.90;;;;;;5132692;27;20247;-67
2021/04/06 05:30:11;;;;;;;14.60;7.30;;;1.50;99.90;;;;;;5132710;27;20209;-67
2021/04/06 05:32:38;;;;;;;10.18;4.63;;;1.50;99.90;;;;;;5132599;27;20290;-65
2021/04/06 05:35:06;;;;;;;16.67;3.92;;;1.60;99.90;;;;;;5132205;27;20256;-66
2021/04/06 05:37:33;;;;;;;10.40;3.55;;;1.60;99.90;;;;;;5132144;27;20201;-66
2021/04/06 05:39:59;;;;;;;9.45;2.72;;;1.60;99.90;;;;;;5133035;27;20206;-66
2021/04/06 05:42:26;;;;;;;11.85;3.10;;;1.60;99.90;;;;;;5132302;27;20562;-66
2021/04/06 05:44:54;;;;;;;8.63;2.72;;;1.50;99.90;;;;;;5132524;27;20209;-65
2021/04/06 05:47:24;;;;;;;9.35;2.67;;;1.50;99.90;;;;;;5132160;27;20206;-64
2021/04/06 05:49:52;;;;;;;7.47;2.25;;;1.50;99.90;;;;;;5132447;27;20206;-62
2021/04/06 05:52:19;;;;;;;11.00;2.95;;;1.50;99.90;;;;;;5132275;27;20210;-64
2021/04/06 05:54:46;;;;;;;12.13;2.92;;;1.60;99.90;;;;;;5132040;27;20311;-61
2021/04/06 05:57:12;;;;;;;12.23;3.60;;;1.60;99.90;;;;;;5135641;27;20295;-63
2021/04/06 05:59:39;;;;;;;13.95;3.60;;;1.60;99.90;;;;;;5133707;27;20296;-66
2021/04/06 06:02:08;;;;;;;7.90;3.00;;;1.70;99.90;;;;;;5127606;27;20194;-61
2021/04/06 06:04:36;;;;;;;10.77;4.68;;;1.70;99.90;;;;;;5126162;27;20582;-64
2021/04/06 06:07:03;;;;;;;15.20;5.45;;;1.70;99.90;;;;;;5134868;27;20206;-63
2021/04/06 06:09:31;;;;;;;11.15;4.10;;;1.60;99.90;;;;;;5135628;27;20193;-65
2021/04/06 06:11:59;;;;;;;9.90;5.60;;;1.60;99.90;;;;;;5135704;27;20291;-61
2021/04/06 06:14:33;;;;;;;11.82;3.90;;;1.70;99.90;;;;;;5135123;27;20696;-65
2021/04/06 06:17:15;;;;;;;10.73;4.13;;;1.70;99.90;;;;;;5135066;27;20216;-62
2021/04/06 06:19:42;;;;;;;16.33;4.45;;;1.70;99.90;;;;;;5134834;27;20228;-63
2021/04/06 06:22:11;;;;;;;15.00;4.38;;;1.90;99.90;;;;;;5135436;27;20228;-63
2021/04/06 06:24:42;;;;;;;13.07;5.30;;;2.10;99.90;;;;;;5134988;27;20542;-61
2021/04/06 06:27:34;;;;;;;17.05;8.18;;;2.30;99.90;;;;;;5135254;27;20260;-61
2021/04/06 06:30:26;;;;;;;15.23;5.82;;;2.70;99.90;;;;;;5134759;27;20194;-62
2021/04/06 06:33:26;;;;;;;12.43;6.00;;;2.90;99.90;;;;;;5135157;27;20222;-62
2021/04/06 06:35:54;;;;;;;21.83;8.32;;;2.90;99.90;;;;;;5133183;27;20486;-61
2021/04/06 06:38:24;;;;;;;23.43;7.33;;;2.90;99.90;;;;;;5123575;27;20285;-62
2021/04/06 06:40:54;;;;;;;21.25;6.75;;;2.70;99.90;;;;;;5134584;27;20447;-64
2021/04/06 06:43:22;;;;;;;14.55;5.35;;;2.60;99.90;;;;;;5134524;27;20758;-63
2021/04/06 06:45:50;;;;;;;14.75;5.05;;;2.60;99.90;;;;;;5134616;27;20233;-63
2021/04/06 06:48:28;;;;;;;16.30;5.75;;;2.60;99.90;;;;;;5134641;27;20293;-66
2021/04/06 06:50:54;;;;;;;18.33;6.90;;;2.60;99.90;;;;;;5133573;27;20287;-65
2021/04/06 06:53:31;;;;;;;17.60;8.03;;;2.60;99.90;;;;;;5131201;27;20202;-62
2021/04/06 06:55:59;;;;;;;11.90;4.88;;;2.80;99.90;;;;;;5131092;27;20895;-62
2021/04/06 06:58:32;;;;;;;12.80;4.22;;;2.90;99.90;;;;;;5124795;27;20544;-65
2021/04/06 07:00:59;;;;;;;11.63;3.72;;;3.30;99.90;;;;;;5131305;27;20206;-62
2021/04/06 07:03:26;;;;;;;12.93;3.50;;;3.60;99.90;;;;;;5132300;27;20199;-61
2021/04/06 07:05:52;;;;;;;13.47;4.07;;;4.10;99.90;;;;;;5127483;27;20550;-61
2021/04/06 07:08:30;;;;;;;13.70;3.33;;;4.20;99.90;;;;;;5122519;27;20492;-62
2021/04/06 07:10:59;;;;;;;9.07;3.57;;;3.90;99.90;;;;;;5134182;27;20426;-62
2021/04/06 07:13:29;;;;;;;9.27;3.50;;;3.60;99.90;;;;;;5134379;27;20479;-65
2021/04/06 07:15:56;;;;;;;22.10;8.67;;;3.70;99.90;;;;;;5133154;27;20509;-62
2021/04/06 07:18:24;;;;;;;13.63;4.73;;;4.10;99.90;;;;;;5131508;27;20479;-62
2021/04/06 07:20:54;;;;;;;11.93;4.00;;;4.60;99.90;;;;;;5123596;27;20534;-62
2021/04/06 07:23:33;;;;;;;10.83;3.40;;;4.70;99.90;;;;;;5126039;27;20426;-64
2021/04/06 07:26:03;;;;;;;11.00;3.60;;;4.70;99.90;;;;;;5132450;27;20985;-62
2021/04/06 07:28:31;;;;;;;11.00;3.97;;;4.80;99.90;;;;;;5133819;27;20457;-62
2021/04/06 07:30:57;;;;;;;9.97;4.70;;;4.70;99.90;;;;;;5131442;27;20518;-62
2021/04/06 07:33:24;;;;;;;14.43;5.20;;;4.60;99.90;;;;;;5133573;27;20429;-64
2021/04/06 07:35:53;;;;;;;13.80;4.90;;;4.40;99.90;;;;;;5133746;27;20429;-62
2021/04/06 07:38:20;;;;;;;12.60;5.00;;;4.60;99.90;;;;;;5131087;27;20430;-63
2021/04/06 07:40:47;;;;;;;14.20;4.93;;;4.80;99.90;;;;;;5129964;27;20431;-62
2021/04/06 07:43:15;;;;;;;11.57;5.23;;;5.00;99.90;;;;;;5133034;27;20567;-63
2021/04/06 07:45:45;;;;;;;12.97;4.80;;;5.30;99.90;;;;;;5132961;27;20446;-65
2021/04/06 07:48:13;;;;;;;16.03;5.40;;;5.90;99.90;;;;;;5133835;27;20428;-62
2021/04/06 07:50:42;;;;;;;14.10;4.87;;;6.20;99.90;;;;;;5133657;27;20885;-63
2021/04/06 07:53:24;;;;;;;12.47;3.70;;;7.30;99.90;;;;;;5133599;27;20443;-63
2021/04/06 07:55:51;;;;;;;16.60;4.23;;;8.30;99.90;;;;;;5132873;27;20515;-61
2021/04/06 07:58:51;;;;;;;12.37;4.43;;;8.50;99.90;;;;;;5133466;27;20455;-62
2021/04/06 08:01:26;;;;;;;11.93;3.33;;;9.20;99.90;;;;;;5133334;27;20795;-61
2021/04/06 08:04:06;;;;;;;10.83;3.87;;;9.70;99.90;;;;;;5132896;27;20488;-63
2021/04/06 08:06:45;;;;;;;13.63;4.97;;;9.60;99.90;;;;;;5112463;28;20488;-65
2021/04/06 08:09:42;;;;;;;13.83;4.70;;;9.10;99.90;;;;;;5128732;27;20518;-63
2021/04/06 08:12:11;;;;;;;21.00;5.70;;;8.80;99.90;;;;;;5132618;27;20505;-62
2021/04/06 08:14:40;;;;;;;14.23;6.00;;;8.70;99.90;;;;;;5132863;27;20870;-64
2021/04/06 08:17:48;;;;;;;15.87;6.50;;;9.20;99.90;;;;;;5131757;27;20870;-64
2021/04/06 08:20:42;;;;;;;17.23;6.63;;;9.30;99.90;;;;;;5131685;27;20532;-63
2021/04/06 08:23:12;;;;;;;16.10;6.27;;;10.50;99.90;;;;;;5131305;27;20525;-63
2021/04/06 08:25:44;;;;;;;17.20;7.10;;;10.70;99.90;;;;;;5130964;27;21032;-65
2021/04/06 08:28:38;;;;;;;17.57;6.50;;;9.60;99.90;;;;;;5132633;27;20877;-65
2021/04/06 08:31:27;;;;;;;18.60;5.40;;;8.70;99.90;;;;;;5102387;27;20976;-62
2021/04/06 08:33:55;;;;;;;21.57;5.73;;;7.90;99.90;;;;;;5122347;27;20523;-64
2021/04/06 08:36:23;;;;;;;19.30;5.90;;;7.60;99.90;;;;;;5130478;27;20436;-64
2021/04/06 08:38:49;;;;;;;13.73;6.70;;;6.90;99.90;;;;;;5131317;27;20594;-64
2021/04/06 08:41:36;;;;;;;19.80;6.77;;;6.90;99.90;;;;;;5131225;27;20440;-62
2021/04/06 08:44:06;;;;;;;15.97;7.63;;;6.60;99.90;;;;;;5128329;28;20455;-65
2021/04/06 08:46:48;;;;;;;14.47;4.57;;;6.10;99.90;;;;;;5131040;27;20459;-61
2021/04/06 08:49:17;;;;;;;18.60;5.50;;;6.10;99.90;;;;;;5131301;28;20901;-64
2021/04/06 08:51:45;;;;;;;13.67;4.50;;;6.30;99.90;;;;;;5131479;27;20446;-62
2021/04/06 08:54:13;;;;;;;12.30;2.83;;;7.20;99.90;;;;;;5130555;28;20563;-62
2021/04/06 08:56:42;;;;;;;12.30;3.47;;;8.70;99.90;;;;;;5128783;27;20894;-62
2021/04/06 08:59:16;;;;;;;13.80;2.47;;;10.60;99.90;;;;;;5130465;27;20539;-61
2021/04/06 09:01:45;;;;;;;11.87;2.77;;;11.80;99.90;;;;;;5129421;28;20473;-62
2021/04/06 09:04:13;;;;;;;8.40;1.67;;;12.60;99.90;;;;;;5128573;28;20977;-62
2021/04/06 09:06:41;;;;;;;10.70;2.20;;;13.40;99.90;;;;;;5128730;28;20546;-63
2021/04/06 09:09:07;;;;;;;11.23;2.80;;;13.50;99.90;;;;;;5128164;27;20513;-62
2021/04/06 09:11:34;;;;;;;9.80;2.10;;;12.00;99.90;;;;;;5131551;28;20548;-62
2021/04/06 09:14:01;;;;;;;7.43;1.50;;;10.60;99.90;;;;;;5130034;27;20466;-62
2021/04/06 09:16:29;;;;;;;9.93;2.20;;;8.50;99.90;;;;;;5129341;28;20468;-64
2021/04/06 09:18:57;;;;;;;11.53;2.43;;;7.50;99.90;;;;;;5131303;27;21020;-61
2021/04/06 09:21:26;;;;;;;13.23;2.60;;;7.10;99.90;;;;;;5128100;28;20452;-60
2021/04/06 09:23:54;;;;;;;13.60;2.83;;;6.10;99.90;;;;;;5130692;27;20451;-62
2021/04/06 09:26:20;;;;;;;9.50;2.33;;;5.60;99.90;;;;;;5130919;27;20530;-62
2021/04/06 09:28:47;;;;;;;12.10;2.90;;;5.20;99.90;;;;;;5132241;27;20515;-61
2021/04/06 09:31:14;;;;;;;9.53;1.53;;;5.70;99.90;;;;;;5134524;27;20447;-62
2021/04/06 09:33:40;;;;;;;9.70;2.50;;;8.40;99.90;;;;;;5134270;27;20484;-62
2021/04/06 09:36:13;;;;;;;10.97;2.43;;;11.00;99.90;;;;;;5134633;27;20837;-65
2021/04/06 09:38:40;;;;;;;11.00;3.07;;;13.00;99.90;;;;;;5135143;27;20808;-64
2021/04/06 09:41:11;;;;;;;8.70;2.47;;;13.80;99.90;;;;;;5135109;27;20540;-63
2021/04/06 09:43:38;;;;;;;6.10;1.60;;;15.40;99.90;;;;;;5132114;27;20460;-64
2021/04/06 09:46:04;;;;;;;11.80;2.90;;;14.70;99.90;;;;;;5131765;27;20496;-64
2021/04/06 09:48:31;;;;;;;7.00;1.97;;;15.00;99.90;;;;;;5135181;27;20531;-65
2021/04/06 09:51:00;;;;;;;7.50;1.90;;;15.30;99.90;;;;;;5134685;27;21061;-63
2021/04/06 09:53:27;;;;;;;5.17;1.50;;;16.90;99.90;;;;;;5132013;27;20451;-65
2021/04/06 09:55:55;;;;;;;6.80;1.93;;;17.90;96.10;;;;;;5134415;27;20531;-64
2021/04/06 09:58:22;;;;;;;5.17;1.60;;;16.10;93.70;;;;;;5134897;27;20492;-62
2021/04/06 10:00:49;;;;;;;5.40;1.53;;;15.00;95.00;;;;;;5134289;27;20449;-61
2021/04/06 10:03:23;;;;;;;6.80;1.83;;;11.90;94.70;;;;;;5133552;27;20817;-62
2021/04/06 10:06:01;;;;;;;11.50;1.80;;;11.60;99.80;;;;;;5131324;27;20439;-64
2021/04/06 10:08:30;;;;;;;8.23;2.30;;;10.50;99.90;;;;;;5126952;27;20539;-63
2021/04/06 10:10:56;;;;;;;6.73;2.03;;;11.80;99.90;;;;;;5134150;27;21091;-66
2021/04/06 10:13:23;;;;;;;7.07;1.80;;;14.80;99.90;;;;;;5133529;27;20888;-65
2021/04/06 10:15:50;;;;;;;6.53;2.23;;;14.50;94.40;;;;;;5133815;27;20523;-63
2021/04/06 10:18:17;;;;;;;7.83;1.93;;;15.30;92.30;;;;;;5131822;27;20831;-64
2021/04/06 10:20:45;;;;;;;9.00;2.33;;;14.00;93.00;;;;;;5133939;27;20453;-64
2021/04/06 10:23:13;;;;;;;7.00;2.40;;;13.90;96.40;;;;;;5132131;27;20454;-63
2021/04/06 10:25:42;;;;;;;19.53;9.67;;;16.00;96.70;;;;;;5133619;27;20875;-65
2021/04/06 10:28:19;;;;;;;44.00;20.23;;;16.20;90.50;;;;;;5131450;27;20866;-63
2021/04/06 10:30:48;;;;;;;5.83;1.90;;;14.80;89.80;;;;;;5134182;27;21015;-63
2021/04/06 10:33:16;;;;;;;9.73;1.37;;;12.50;90.90;;;;;;5129610;27;20865;-63
2021/04/06 10:35:46;;;;;;;5.30;1.40;;;11.40;92.20;;;;;;5133709;27;20523;-63
2021/04/06 10:38:18;;;;;;;8.07;1.50;;;11.80;98.20;;;;;;5131513;27;20879;-63
2021/04/06 10:40:46;;;;;;;5.20;1.43;;;13.60;93.00;;;;;;5132858;27;20464;-64
2021/04/06 10:43:15;;;;;;;6.80;1.90;;;13.40;94.60;;;;;;5130951;27;20477;-64
2021/04/06 10:45:52;;;;;;;5.73;1.70;;;12.90;93.20;;;;;;5133645;27;20539;-64
2021/04/06 10:48:21;;;;;;;5.03;1.10;;;13.00;94.50;;;;;;5133421;27;20487;-63
2021/04/06 10:50:50;;;;;;;4.00;1.00;;;13.40;91.60;;;;;;5133501;27;20952;-64
2021/04/06 10:53:23;;;;;;;6.33;1.63;;;12.90;91.50;;;;;;5129984;27;20809;-63
2021/04/06 10:55:57;;;;;;;4.60;1.30;;;12.00;94.90;;;;;;5132028;27;20856;-64
2021/04/06 10:58:26;;;;;;;5.23;1.27;;;11.30;92.70;;;;;;5132895;27;20584;-65
2021/04/06 11:00:58;;;;;;;6.00;1.50;;;10.00;92.90;;;;;;5134492;27;20436;-66
2021/04/06 11:03:26;;;;;;;7.03;1.47;;;10.40;97.80;;;;;;5133710;27;20448;-63
2021/04/06 11:05:52;;;;;;;6.27;1.60;;;11.30;99.60;;;;;;5134216;27;20460;-63
2021/04/06 11:08:24;;;;;;;5.80;1.90;;;11.30;96.00;;;;;;5134462;27;20472;-67
2021/04/06 11:10:54;;;;;;;5.10;1.50;;;11.30;96.20;;;;;;5114098;28;20453;-66
2021/04/06 11:13:22;;;;;;;4.60;1.10;;;13.20;99.40;;;;;;5114009;27;20449;-63
2021/04/06 11:15:49;;;;;;;6.13;1.70;;;15.60;91.20;;;;;;5134190;27;20484;-63
2021/04/06 11:18:16;;;;;;;4.77;1.20;;;16.40;91.20;;;;;;5121977;27;20452;-63
2021/04/06 11:20:43;;;;;;;5.90;1.20;;;17.00;82.50;;;;;;5118879;27;20926;-63
2021/04/06 11:23:10;;;;;;;7.30;1.83;;;15.30;77.20;;;;;;5123217;27;20806;-64
2021/04/06 11:25:36;;;;;;;4.90;1.33;;;15.90;80.00;;;;;;5121229;27;20544;-64
2021/04/06 11:28:03;;;;;;;5.73;1.33;;;16.20;79.20;;;;;;5121717;27;20543;-65
2021/04/06 11:30:32;;;;;;;9.27;1.60;;;14.80;75.20;;;;;;5130102;27;20440;-64
2021/04/06 11:33:00;;;;;;;6.57;1.37;;;12.90;76.70;;;;;;5133157;27;20467;-64
2021/04/06 11:35:27;;;;;;;6.17;1.10;;;12.20;79.60;;;;;;5132549;27;21013;-63
2021/04/06 11:37:53;;;;;;;7.57;1.70;;;11.80;90.20;;;;;;5132254;27;20532;-63
2021/04/06 11:40:20;;;;;;;6.30;1.93;;;11.10;87.60;;;;;;5136447;27;20531;-62
2021/04/06 11:42:46;;;;;;;7.57;1.40;;;10.60;86.30;;;;;;5133578;27;20535;-67
2021/04/06 11:45:13;;;;;;;4.93;1.37;;;9.80;88.80;;;;;;5132163;27;20437;-63
2021/04/06 11:47:41;;;;;;;5.77;1.43;;;9.60;89.10;;;;;;5131812;27;20460;-65
2021/04/06 11:50:08;;;;;;;4.20;1.20;;;9.90;86.60;;;;;;5125674;27;20477;-66
2021/04/06 11:52:36;;;;;;;5.60;0.90;;;9.70;88.10;;;;;;5128925;27;20480;-65
2021/04/06 11:55:03;;;;;;;5.93;1.13;;;9.50;85.30;;;;;;5127876;27;20571;-65
2021/04/06 11:57:29;;;;;;;5.10;1.23;;;8.80;88.70;;;;;;5124366;27;20477;-66
2021/04/06 11:59:56;;;;;;;4.30;1.10;;;7.90;93.20;;;;;;5130266;27;20444;-63
2021/04/06 12:02:23;;;;;;;7.57;1.70;;;7.60;99.90;;;;;;5131715;27;20449;-63
2021/04/06 12:04:50;;;;;;;8.40;2.00;;;7.10;99.90;;;;;;5132823;27;20450;-65
2021/04/06 12:07:16;;;;;;;7.30;1.33;;;6.80;99.90;;;;;;5131905;27;20527;-66
2021/04/06 12:09:43;;;;;;;9.63;1.50;;;6.50;99.90;;;;;;5133419;27;20463;-65
2021/04/06 12:12:10;;;;;;;12.17;1.93;;;6.20;99.90;;;;;;5132464;27;20581;-62
2021/04/06 12:14:36;;;;;;;7.43;1.57;;;6.30;99.90;;;;;;5132322;27;20509;-62
2021/04/06 12:17:02;;;;;;;8.60;2.20;;;8.20;99.90;;;;;;5131797;27;20535;-63
2021/04/06 12:19:29;;;;;;;7.40;1.60;;;11.70;99.90;;;;;;5128360;27;20463;-66
2021/04/06 12:21:57;;;;;;;4.07;1.00;;;14.40;99.90;;;;;;5123277;27;20846;-63
2021/04/06 12:24:23;;;;;;;5.23;1.20;;;16.40;99.90;;;;;;5122801;27;20539;-64
2021/04/06 12:26:52;;;;;;;4.57;1.20;;;17.90;99.90;;;;;;5130442;27;20452;-67
2021/04/06 12:29:18;;;;;;;4.47;1.13;;;19.80;94.20;;;;;;5122520;27;20456;-63
2021/04/06 12:31:45;;;;;;;5.83;1.37;;;19.70;92.10;;;;;;5126253;27;20551;-64
2021/04/06 12:34:11;;;;;;;4.87;1.47;;;20.80;86.30;;;;;;5120636;27;20575;-63
2021/04/06 12:36:38;;;;;;;4.90;1.23;;;19.80;77.90;;;;;;5129385;27;20451;-66
2021/04/06 12:39:05;;;;;;;4.53;1.40;;;17.90;77.60;;;;;;5131765;27;20448;-65
2021/04/06 12:41:32;;;;;;;5.03;1.87;;;17.20;79.30;;;;;;5130512;27;20455;-63
2021/04/06 12:43:58;;;;;;;6.20;2.27;;;15.80;80.70;;;;;;5131319;27;20591;-63
2021/04/06 12:46:25;;;;;;;5.57;1.70;;;14.30;83.60;;;;;;5125515;28;21624;-67
2021/04/06 12:48:51;;;;;;;5.53;2.20;;;13.80;84.80;;;;;;5126828;28;20462;-67
2021/04/06 12:51:18;;;;;;;7.10;2.07;;;12.70;91.00;;;;;;5130455;27;21049;-64
2021/04/06 12:53:44;;;;;;;8.03;1.87;;;12.40;89.60;;;;;;5129022;27;20539;-64
2021/04/06 12:56:11;;;;;;;6.00;1.60;;;11.20;91.30;;;;;;5129981;28;20474;-64
2021/04/06 12:58:37;;;;;;;7.10;1.90;;;10.20;94.60;;;;;;5129813;27;20444;-63